Time;durP1;ratioP1;P1;durP2;ratioP2;P2;SDS_P1;SDS_P2;PMS_P1;PMS_P2;Temp;Humidity;BMP_temperature;BMP_pressure;BME280_temperature;BME280_humidity;BME280_pressure;Samples;Min_cycle;Max_cycle;Signal;HPM_P1;HPM_P2
2022/10/01 00:01:10;;;;;;;5.20;4.30;;;;;;;;;;5052722;28;20503;-46
2022/10/01 00:03:37;;;;;;;4.33;3.93;;;;;;;;;;5052583;28;20435;-46
2022/10/01 00:06:13;;;;;;;4.00;3.60;;;;;;;;;;5052592;28;20410;-49
2022/10/01 00:08:47;;;;;;;5.33;4.00;;;;;;;;;;5052995;28;20447;-47
2022/10/01 00:11:23;;;;;;;4.43;3.90;;;;;;;;;;5052987;28;20450;-46
2022/10/01 00:13:50;;;;;;;4.40;3.77;;;;;;;;;;5052625;28;20435;-47
2022/10/01 00:16:17;;;;;;;5.03;4.23;;;;;;;;;;5052857;28;21012;-47
2022/10/01 00:18:44;;;;;;;4.33;3.93;;;;;;;;;;5052513;28;20950;-48
2022/10/01 00:21:17;;;;;;;6.23;4.30;;;;;;;;;;5052599;28;20410;-47
2022/10/01 00:23:43;;;;;;;5.10;4.00;;;;;;;;;;5052350;28;20432;-45
2022/10/01 00:26:14;;;;;;;5.20;3.70;;;;;;;;;;5052485;28;20856;-45
2022/10/01 00:28:41;;;;;;;6.77;4.30;;;;;;;;;;5052243;28;20434;-48
2022/10/01 00:31:09;;;;;;;4.43;4.03;;;;;;;;;;5052363;28;20497;-48
2022/10/01 00:33:36;;;;;;;5.70;4.00;;;;;;;;;;5051996;28;20399;-47
2022/10/01 00:36:04;;;;;;;5.27;3.97;;;;;;;;;;5052512;28;20403;-45
2022/10/01 00:38:32;;;;;;;6.40;4.40;;;;;;;;;;5051982;28;20493;-45
2022/10/01 00:40:59;;;;;;;5.03;4.30;;;;;;;;;;5052179;28;20410;-45
2022/10/01 00:43:27;;;;;;;6.20;4.30;;;;;;;;;;5052081;28;20812;-46
2022/10/01 00:46:02;;;;;;;6.43;4.67;;;;;;;;;;5052320;28;20410;-46
2022/10/01 00:48:29;;;;;;;4.00;3.70;;;;;;;;;;5051957;28;20414;-47
2022/10/01 00:50:55;;;;;;;5.87;4.30;;;;;;;;;;5052337;28;20456;-46
2022/10/01 00:53:22;;;;;;;4.10;3.67;;;;;;;;;;5051517;28;20397;-47
2022/10/01 00:55:54;;;;;;;5.67;4.00;;;;;;;;;;5052310;28;20404;-47
2022/10/01 00:58:23;;;;;;;4.30;3.90;;;;;;;;;;5051776;28;20422;-45
2022/10/01 01:00:49;;;;;;;6.30;4.10;;;;;;;;;;5051589;28;20820;-47
2022/10/01 01:03:15;;;;;;;4.23;3.80;;;;;;;;;;5050729;28;20451;-45
2022/10/01 01:05:42;;;;;;;5.00;4.60;;;;;;;;;;5051221;28;20474;-46
2022/10/01 01:08:09;;;;;;;5.27;4.77;;;;;;;;;;5050961;28;20835;-46
2022/10/01 01:10:53;;;;;;;4.83;4.33;;;;;;;;;;5051816;28;20575;-46
2022/10/01 01:13:38;;;;;;;4.67;4.37;;;;;;;;;;5051229;28;20951;-47
2022/10/01 01:16:18;;;;;;;5.20;4.40;;;;;;;;;;5052175;28;20427;-44
2022/10/01 01:18:51;;;;;;;5.47;5.07;;;;;;;;;;5050726;28;20937;-44
2022/10/01 01:21:16;;;;;;;5.30;4.80;;;;;;;;;;5051425;28;20405;-45
2022/10/01 01:24:03;;;;;;;10.23;6.33;;;;;;;;;;5051611;28;20414;-44
2022/10/01 01:26:32;;;;;;;6.87;5.13;;;;;;;;;;5051491;28;20405;-44
2022/10/01 01:29:01;;;;;;;6.10;5.60;;;;;;;;;;5051298;28;20820;-44
2022/10/01 01:31:30;;;;;;;5.40;4.90;;;;;;;;;;5050868;28;20901;-45
2022/10/01 01:33:57;;;;;;;6.27;5.60;;;;;;;;;;5051168;28;20783;-45
2022/10/01 01:36:27;;;;;;;10.33;5.97;;;;;;;;;;5051628;28;20401;-45
2022/10/01 01:38:56;;;;;;;5.70;5.20;;;;;;;;;;5051126;28;20425;-45
2022/10/01 01:41:24;;;;;;;7.63;6.10;;;;;;;;;;5051175;28;20397;-45
2022/10/01 01:43:51;;;;;;;8.80;6.53;;;;;;;;;;5051040;28;20408;-45
2022/10/01 01:46:18;;;;;;;8.80;6.40;;;;;;;;;;5051593;28;20432;-45
2022/10/01 01:48:46;;;;;;;6.93;5.73;;;;;;;;;;5051122;28;20960;-45
2022/10/01 01:51:22;;;;;;;7.57;6.90;;;;;;;;;;5051209;28;20534;-46
2022/10/01 01:53:49;;;;;;;6.53;5.87;;;;;;;;;;5050943;28;20917;-45
2022/10/01 01:56:16;;;;;;;6.90;6.20;;;;;;;;;;5051617;28;20467;-45
2022/10/01 02:01:48;;;;;;;9.37;5.30;;;;;;;;;;5047677;28;20373;-45
2022/10/01 02:04:33;;;;;;;8.20;5.60;;;;;;;;;;5050853;28;20480;-45
2022/10/01 02:07:16;;;;;;;13.27;6.03;;;;;;;;;;5051269;28;20420;-45
2022/10/01 02:09:48;;;;;;;6.03;5.43;;;;;;;;;;5051049;28;20771;-45
2022/10/01 02:12:31;;;;;;;5.90;5.30;;;;;;;;;;5051016;28;20453;-45
2022/10/01 02:15:07;;;;;;;6.03;5.43;;;;;;;;;;5051466;28;20457;-45
2022/10/01 02:17:39;;;;;;;6.63;5.50;;;;;;;;;;5051404;28;20820;-45
2022/10/01 02:20:17;;;;;;;5.60;5.10;;;;;;;;;;5050747;28;20394;-45
2022/10/01 02:22:49;;;;;;;5.50;4.93;;;;;;;;;;5050590;28;20405;-46
2022/10/01 02:25:17;;;;;;;5.80;5.00;;;;;;;;;;5051162;28;20397;-45
2022/10/01 02:27:47;;;;;;;7.60;5.33;;;;;;;;;;5050939;28;20782;-45
2022/10/01 02:30:14;;;;;;;6.73;5.40;;;;;;;;;;5053648;28;20436;-45
2022/10/01 02:32:43;;;;;;;6.40;5.53;;;;;;;;;;5054356;28;20405;-45
2022/10/01 02:35:10;;;;;;;7.93;5.83;;;;;;;;;;5054784;28;20768;-46
2022/10/01 02:37:38;;;;;;;7.43;5.57;;;;;;;;;;5054572;28;20417;-45
2022/10/01 02:40:06;;;;;;;10.70;5.87;;;;;;;;;;5054492;28;20405;-46
2022/10/01 02:42:33;;;;;;;6.20;5.40;;;;;;;;;;5053961;28;20485;-46
2022/10/01 02:45:01;;;;;;;6.93;5.30;;;;;;;;;;5054690;28;20470;-46
2022/10/01 02:47:31;;;;;;;7.03;6.40;;;;;;;;;;5054648;28;20994;-46
2022/10/01 02:49:57;;;;;;;6.30;5.70;;;;;;;;;;5053932;28;20527;-46
2022/10/01 02:52:32;;;;;;;8.83;6.73;;;;;;;;;;5053748;28;20465;-47
2022/10/01 02:55:00;;;;;;;7.13;6.10;;;;;;;;;;5054308;28;20412;-46
2022/10/01 02:57:26;;;;;;;10.30;6.57;;;;;;;;;;5054358;28;20469;-46
2022/10/01 02:59:58;;;;;;;6.40;5.80;;;;;;;;;;5053816;28;20408;-46
2022/10/01 03:02:26;;;;;;;11.97;6.10;;;;;;;;;;5053487;28;20421;-46
2022/10/01 03:04:52;;;;;;;8.30;6.10;;;;;;;;;;5054199;28;20397;-46
2022/10/01 03:07:18;;;;;;;6.97;5.80;;;;;;;;;;5054089;28;20483;-47
2022/10/01 03:09:44;;;;;;;7.17;6.47;;;;;;;;;;5053816;28;20417;-46
2022/10/01 03:12:10;;;;;;;7.93;6.03;;;;;;;;;;5053769;28;20461;-46
2022/10/01 03:14:38;;;;;;;6.90;6.23;;;;;;;;;;5053560;28;20440;-46
2022/10/01 03:17:04;;;;;;;9.77;6.67;;;;;;;;;;5053833;28;20433;-47
2022/10/01 03:19:30;;;;;;;6.87;6.17;;;;;;;;;;5053525;28;20773;-46
2022/10/01 03:21:56;;;;;;;5.40;4.90;;;;;;;;;;5053642;28;20401;-46
2022/10/01 03:24:22;;;;;;;7.20;6.50;;;;;;;;;;5053464;28;20678;-47
2022/10/01 03:26:48;;;;;;;5.90;5.30;;;;;;;;;;5053794;28;20402;-46
2022/10/01 03:29:14;;;;;;;7.87;6.03;;;;;;;;;;5053743;28;20492;-46
2022/10/01 03:31:40;;;;;;;6.37;5.70;;;;;;;;;;5052935;28;20547;-46
2022/10/01 03:34:06;;;;;;;7.00;5.60;;;;;;;;;;5053599;28;20417;-46
2022/10/01 03:36:32;;;;;;;6.60;5.47;;;;;;;;;;5053652;28;20958;-48
2022/10/01 03:38:58;;;;;;;6.17;5.67;;;;;;;;;;5052250;28;20512;-46
2022/10/01 03:41:24;;;;;;;6.43;5.83;;;;;;;;;;5051412;28;20405;-47
2022/10/01 03:43:50;;;;;;;6.70;6.07;;;;;;;;;;5052872;28;20926;-47
2022/10/01 03:46:17;;;;;;;6.10;5.40;;;;;;;;;;5053252;28;20429;-47
2022/10/01 03:48:43;;;;;;;7.23;5.30;;;;;;;;;;5053333;28;20428;-47
2022/10/01 03:51:09;;;;;;;5.67;5.17;;;;;;;;;;5052883;28;20457;-46
2022/10/01 03:53:34;;;;;;;6.03;4.83;;;;;;;;;;5052797;28;20437;-46
2022/10/01 03:56:01;;;;;;;5.63;5.13;;;;;;;;;;5053253;28;20401;-47
2022/10/01 03:58:27;;;;;;;6.53;5.40;;;;;;;;;;5053185;28;20421;-46
2022/10/01 04:00:54;;;;;;;5.37;4.87;;;;;;;;;;5052728;28;20915;-46
2022/10/01 04:03:20;;;;;;;5.80;5.20;;;;;;;;;;5052496;28;20991;-47
2022/10/01 04:05:46;;;;;;;6.40;5.27;;;;;;;;;;5053158;28;20885;-46
2022/10/01 04:08:12;;;;;;;5.10;4.60;;;;;;;;;;5052981;28;20495;-46
2022/10/01 04:10:38;;;;;;;5.30;4.33;;;;;;;;;;5052490;28;20449;-47
2022/10/01 04:13:04;;;;;;;5.77;4.50;;;;;;;;;;5052338;28;20401;-46
2022/10/01 04:15:31;;;;;;;5.03;4.63;;;;;;;;;;5052738;28;20878;-46
2022/10/01 04:17:57;;;;;;;4.93;4.53;;;;;;;;;;5053106;28;20844;-48
2022/10/01 04:20:24;;;;;;;5.23;4.83;;;;;;;;;;5052342;28;20883;-47
2022/10/01 04:22:50;;;;;;;6.73;4.40;;;;;;;;;;5052160;28;20889;-48
2022/10/01 04:25:16;;;;;;;4.00;3.70;;;;;;;;;;5052680;28;20479;-47
2022/10/01 04:27:43;;;;;;;4.37;3.97;;;;;;;;;;5053020;28;20425;-47
2022/10/01 04:30:09;;;;;;;3.97;3.63;;;;;;;;;;5052183;28;21200;-47
2022/10/01 04:32:37;;;;;;;3.53;3.23;;;;;;;;;;5051791;28;20455;-47
2022/10/01 04:35:06;;;;;;;3.70;3.40;;;;;;;;;;5052777;28;20420;-47
2022/10/01 04:37:31;;;;;;;3.93;3.60;;;;;;;;;;5052438;28;20474;-49
2022/10/01 04:39:57;;;;;;;4.37;3.57;;;;;;;;;;5052083;28;20497;-47
2022/10/01 04:42:23;;;;;;;3.10;2.90;;;;;;;;;;5051870;28;20413;-47
2022/10/01 04:44:49;;;;;;;3.47;3.17;;;;;;;;;;5051941;28;20443;-47
2022/10/01 04:47:15;;;;;;;3.27;3.07;;;;;;;;;;5052152;28;20514;-49
2022/10/01 04:49:41;;;;;;;4.87;3.47;;;;;;;;;;5052115;28;20409;-47
2022/10/01 04:52:07;;;;;;;3.13;2.93;;;;;;;;;;5051634;28;20461;-48
2022/10/01 04:54:33;;;;;;;3.17;2.97;;;;;;;;;;5051712;28;20406;-47
2022/10/01 04:56:59;;;;;;;3.27;2.63;;;;;;;;;;5051915;28;20441;-48
2022/10/01 04:59:25;;;;;;;2.93;2.73;;;;;;;;;;5051808;28;20905;-48
2022/10/01 05:01:51;;;;;;;3.10;2.80;;;;;;;;;;5051742;28;20773;-47
2022/10/01 05:04:17;;;;;;;3.00;2.80;;;;;;;;;;5051669;28;20405;-47
2022/10/01 05:06:43;;;;;;;3.20;3.00;;;;;;;;;;5051870;28;20412;-49
2022/10/01 05:09:09;;;;;;;2.77;2.57;;;;;;;;;;5052322;28;20752;-47
2022/10/01 05:11:36;;;;;;;3.30;3.10;;;;;;;;;;5051284;28;20488;-47
2022/10/01 05:14:02;;;;;;;3.50;2.57;;;;;;;;;;5051505;28;20401;-48
2022/10/01 05:16:28;;;;;;;3.37;3.07;;;;;;;;;;5051908;28;20394;-47
2022/10/01 05:18:54;;;;;;;2.37;2.17;;;;;;;;;;5051733;28;20436;-47
2022/10/01 05:21:20;;;;;;;2.37;2.17;;;;;;;;;;5051356;28;20402;-47
2022/10/01 05:23:46;;;;;;;5.40;2.27;;;;;;;;;;5051073;28;20496;-47
2022/10/01 05:26:12;;;;;;;2.57;2.37;;;;;;;;;;5051620;28;20424;-46
2022/10/01 05:28:43;;;;;;;2.60;2.40;;;;;;;;;;5051626;28;20417;-47
2022/10/01 05:31:10;;;;;;;2.50;2.30;;;;;;;;;;5051335;28;20980;-46
2022/10/01 05:33:36;;;;;;;4.70;2.60;;;;;;;;;;5050534;28;20401;-46
2022/10/01 05:36:03;;;;;;;6.40;2.73;;;;;;;;;;5051486;28;20394;-47
2022/10/01 05:38:29;;;;;;;3.00;2.70;;;;;;;;;;5051290;28;20424;-47
2022/10/01 05:40:55;;;;;;;2.90;2.70;;;;;;;;;;5050573;28;20410;-47
2022/10/01 05:43:21;;;;;;;2.33;2.23;;;;;;;;;;5050839;28;20446;-48
2022/10/01 05:45:49;;;;;;;3.23;2.30;;;;;;;;;;5051648;28;20401;-48
2022/10/01 05:48:15;;;;;;;2.30;2.20;;;;;;;;;;5051300;28;20836;-47
2022/10/01 05:50:42;;;;;;;2.57;2.43;;;;;;;;;;5050967;28;20995;-47
2022/10/01 05:53:10;;;;;;;2.77;2.50;;;;;;;;;;5050519;28;20394;-48
2022/10/01 05:55:36;;;;;;;2.30;2.10;;;;;;;;;;5051409;28;20905;-47
2022/10/01 05:58:10;;;;;;;2.67;2.30;;;;;;;;;;5051345;28;20416;-47
2022/10/01 06:00:36;;;;;;;1.93;1.77;;;;;;;;;;5051245;28;20397;-47
2022/10/01 06:03:03;;;;;;;2.23;2.13;;;;;;;;;;5049882;28;20440;-47
2022/10/01 06:05:30;;;;;;;2.23;1.90;;;;;;;;;;5048737;28;20433;-47
2022/10/01 06:07:56;;;;;;;2.20;2.10;;;;;;;;;;5055586;28;20888;-48
2022/10/01 06:10:22;;;;;;;2.37;2.23;;;;;;;;;;5055332;28;20792;-50
2022/10/01 06:12:48;;;;;;;2.50;2.00;;;;;;;;;;5054633;28;20468;-49
2022/10/01 06:15:15;;;;;;;2.03;1.87;;;;;;;;;;5055806;28;20404;-45
2022/10/01 06:17:44;;;;;;;3.43;2.40;;;;;;;;;;5054887;28;20417;-46
2022/10/01 06:20:11;;;;;;;3.10;2.23;;;;;;;;;;5055119;28;20608;-48
2022/10/01 06:22:37;;;;;;;1.80;1.70;;;;;;;;;;5054740;28;20406;-47
2022/10/01 06:25:04;;;;;;;1.93;1.83;;;;;;;;;;5054991;28;20394;-46
2022/10/01 06:27:30;;;;;;;1.60;1.50;;;;;;;;;;5054822;28;20931;-47
2022/10/01 06:29:56;;;;;;;1.93;1.83;;;;;;;;;;5052529;28;20893;-47
2022/10/01 06:32:22;;;;;;;2.10;1.90;;;;;;;;;;5052564;28;20444;-46
2022/10/01 06:34:48;;;;;;;1.60;1.50;;;;;;;;;;5053486;28;20415;-47
2022/10/01 06:37:14;;;;;;;4.60;2.10;;;;;;;;;;5051597;28;20501;-48
2022/10/01 06:39:40;;;;;;;6.33;1.60;;;;;;;;;;5053214;28;20823;-48
2022/10/01 06:42:06;;;;;;;4.50;1.80;;;;;;;;;;5053717;28;20419;-49
2022/10/01 06:44:32;;;;;;;1.50;1.40;;;;;;;;;;5054139;28;20401;-48
2022/10/01 06:46:58;;;;;;;1.60;1.50;;;;;;;;;;5054746;28;20943;-47
2022/10/01 06:49:25;;;;;;;1.50;1.40;;;;;;;;;;5054390;28;20408;-48
2022/10/01 06:54:36;;;;;;;1.60;1.50;;;;;;;;;;5053885;28;20439;-48
2022/10/01 06:57:01;;;;;;;1.60;1.50;;;;;;;;;;5054186;28;20418;-50
2022/10/01 06:59:27;;;;;;;1.80;1.70;;;;;;;;;;5054122;28;20390;-48
2022/10/01 07:01:53;;;;;;;2.90;1.53;;;;;;;;;;5054157;28;21382;-47
2022/10/01 07:04:20;;;;;;;1.70;1.60;;;;;;;;;;5053705;28;20394;-49
2022/10/01 07:06:46;;;;;;;1.97;1.87;;;;;;;;;;5054081;28;20420;-48
2022/10/01 07:09:12;;;;;;;2.00;1.90;;;;;;;;;;5054140;28;20870;-48
2022/10/01 07:11:41;;;;;;;2.00;1.90;;;;;;;;;;5053684;28;20540;-48
2022/10/01 07:14:08;;;;;;;2.13;2.03;;;;;;;;;;5053543;28;20451;-48
2022/10/01 07:16:34;;;;;;;2.60;2.40;;;;;;;;;;5053379;28;20395;-48
2022/10/01 07:19:00;;;;;;;2.80;2.60;;;;;;;;;;5053809;28;20498;-50
2022/10/01 07:21:26;;;;;;;3.40;3.10;;;;;;;;;;5053972;28;20437;-49
2022/10/01 07:23:52;;;;;;;2.60;2.50;;;;;;;;;;5053239;28;20408;-49
2022/10/01 07:26:18;;;;;;;3.30;3.10;;;;;;;;;;5053926;28;20394;-50
2022/10/01 07:28:45;;;;;;;3.77;3.47;;;;;;;;;;5053752;28;20548;-48
2022/10/01 07:31:11;;;;;;;4.53;3.33;;;;;;;;;;5053523;28;20457;-48
2022/10/01 07:33:37;;;;;;;3.67;3.47;;;;;;;;;;5052867;28;20416;-51
2022/10/01 07:36:04;;;;;;;3.83;3.53;;;;;;;;;;5053625;28;20409;-48
2022/10/01 07:38:32;;;;;;;7.20;4.33;;;;;;;;;;5053585;28;20417;-50
2022/10/01 07:40:58;;;;;;;3.83;3.53;;;;;;;;;;5053461;28;20405;-49
2022/10/01 07:43:24;;;;;;;4.33;4.03;;;;;;;;;;5053087;28;20413;-48
2022/10/01 07:45:53;;;;;;;4.27;4.00;;;;;;;;;;5053441;28;20492;-50
2022/10/01 07:48:20;;;;;;;6.70;4.30;;;;;;;;;;5053310;28;21003;-50
2022/10/01 07:50:46;;;;;;;4.10;3.80;;;;;;;;;;5053235;28;20453;-50
2022/10/01 07:53:12;;;;;;;4.93;4.60;;;;;;;;;;5052852;28;20430;-50
2022/10/01 07:55:38;;;;;;;4.03;3.80;;;;;;;;;;5053245;28;20408;-50
2022/10/01 07:58:04;;;;;;;4.00;3.70;;;;;;;;;;5053253;28;20417;-51
2022/10/01 08:00:32;;;;;;;5.00;4.60;;;;;;;;;;5053088;28;20405;-50
2022/10/01 08:02:58;;;;;;;4.70;4.40;;;;;;;;;;5052423;28;20426;-50
2022/10/01 08:05:26;;;;;;;5.00;4.60;;;;;;;;;;5052975;28;20402;-49
2022/10/01 08:07:52;;;;;;;4.27;3.87;;;;;;;;;;5053011;28;20791;-50
2022/10/01 08:10:19;;;;;;;4.83;4.23;;;;;;;;;;5056147;28;20439;-48
2022/10/01 08:12:45;;;;;;;4.40;4.10;;;;;;;;;;5056391;28;20422;-50
2022/10/01 08:15:12;;;;;;;4.57;4.27;;;;;;;;;;5051263;28;20397;-49
2022/10/01 08:17:38;;;;;;;3.97;3.67;;;;;;;;;;5052819;28;20425;-50
2022/10/01 08:20:05;;;;;;;4.17;3.87;;;;;;;;;;5052663;28;20403;-51
2022/10/01 08:22:32;;;;;;;4.50;4.10;;;;;;;;;;5052648;28;20923;-49
2022/10/01 08:24:58;;;;;;;4.80;4.30;;;;;;;;;;5052162;28;20406;-50
2022/10/01 08:27:24;;;;;;;5.50;4.50;;;;;;;;;;5052357;28;20437;-49
2022/10/01 08:29:50;;;;;;;4.40;4.00;;;;;;;;;;5052429;28;20498;-50
2022/10/01 08:32:16;;;;;;;4.23;3.93;;;;;;;;;;5052335;28;20463;-50
2022/10/01 08:34:42;;;;;;;3.93;3.63;;;;;;;;;;5051962;28;20852;-49
2022/10/01 08:37:08;;;;;;;7.20;4.70;;;;;;;;;;5052758;28;20988;-49
2022/10/01 08:39:35;;;;;;;4.00;3.73;;;;;;;;;;5052255;28;20461;-50
2022/10/01 08:42:11;;;;;;;3.47;3.27;;;;;;;;;;5052383;28;20437;-48
2022/10/01 08:44:40;;;;;;;4.60;4.30;;;;;;;;;;5051771;28;20416;-52
2022/10/01 08:47:10;;;;;;;4.20;3.90;;;;;;;;;;5052323;28;20430;-50
2022/10/01 08:49:39;;;;;;;6.80;4.20;;;;;;;;;;5052111;28;20911;-49
2022/10/01 08:52:09;;;;;;;3.63;3.43;;;;;;;;;;5052151;28;20509;-50
2022/10/01 08:54:38;;;;;;;3.23;3.10;;;;;;;;;;5051712;28;20400;-49
2022/10/01 08:57:08;;;;;;;3.40;2.93;;;;;;;;;;5052061;28;20436;-51
2022/10/01 08:59:40;;;;;;;3.57;3.27;;;;;;;;;;5052109;28;20406;-49
2022/10/01 09:02:17;;;;;;;3.20;3.00;;;;;;;;;;5051872;28;20422;-50
2022/10/01 09:04:43;;;;;;;3.53;3.23;;;;;;;;;;5051694;28;20406;-49
2022/10/01 09:07:21;;;;;;;3.60;3.40;;;;;;;;;;5049789;28;20434;-51
2022/10/01 09:09:54;;;;;;;3.27;3.00;;;;;;;;;;5051635;28;20415;-49
2022/10/01 09:12:38;;;;;;;4.17;2.73;;;;;;;;;;5051700;28;20494;-50
2022/10/01 09:15:23;;;;;;;5.60;3.13;;;;;;;;;;5051584;28;20448;-51
2022/10/01 09:18:05;;;;;;;3.03;2.83;;;;;;;;;;5051050;28;20410;-51
2022/10/01 09:20:35;;;;;;;5.00;3.17;;;;;;;;;;5044999;28;20423;-51
2022/10/01 09:23:11;;;;;;;3.57;3.27;;;;;;;;;;5042461;28;20414;-49
2022/10/01 09:25:37;;;;;;;4.53;2.80;;;;;;;;;;5051481;28;20476;-48
2022/10/01 09:28:12;;;;;;;3.33;3.13;;;;;;;;;;5051427;28;20450;-51
2022/10/01 09:30:41;;;;;;;3.40;3.20;;;;;;;;;;5049546;28;20466;-51
2022/10/01 09:33:33;;;;;;;3.40;2.60;;;;;;;;;;5050430;28;20413;-48
2022/10/01 09:36:14;;;;;;;2.77;2.60;;;;;;;;;;5050073;28;20928;-50
2022/10/01 09:38:45;;;;;;;2.63;2.43;;;;;;;;;;5049851;28;20430;-49
2022/10/01 09:41:13;;;;;;;6.40;2.90;;;;;;;;;;5051097;28;20425;-50
2022/10/01 09:43:40;;;;;;;2.93;2.73;;;;;;;;;;5051001;28;20558;-49
2022/10/01 09:46:12;;;;;;;7.63;2.90;;;;;;;;;;5051302;28;20400;-50
2022/10/01 09:48:50;;;;;;;4.00;3.17;;;;;;;;;;5051394;28;20435;-51
2022/10/01 09:51:17;;;;;;;4.37;4.00;;;;;;;;;;5051015;28;20475;-50
2022/10/01 09:53:46;;;;;;;5.27;2.63;;;;;;;;;;5050903;28;20404;-50
2022/10/01 09:56:21;;;;;;;6.00;2.93;;;;;;;;;;5051202;28;20770;-50
2022/10/01 09:58:50;;;;;;;4.60;2.80;;;;;;;;;;5051256;28;20913;-50
2022/10/01 10:01:22;;;;;;;3.30;3.00;;;;;;;;;;5051087;28;20409;-48
2022/10/01 10:03:56;;;;;;;3.50;2.93;;;;;;;;;;5050718;28;20425;-48
2022/10/01 10:06:27;;;;;;;2.93;2.73;;;;;;;;;;5051057;28;20401;-51
2022/10/01 10:08:54;;;;;;;4.83;3.43;;;;;;;;;;5051104;28;20439;-48
2022/10/01 10:11:21;;;;;;;5.70;3.33;;;;;;;;;;5050950;28;20455;-50
2022/10/01 10:13:55;;;;;;;4.00;3.70;;;;;;;;;;5050690;28;20400;-48
2022/10/01 10:16:26;;;;;;;8.03;4.13;;;;;;;;;;5050880;28;20407;-50
2022/10/01 10:18:55;;;;;;;3.83;3.17;;;;;;;;;;5051064;28;20500;-49
2022/10/01 10:21:23;;;;;;;7.73;3.70;;;;;;;;;;5050928;28;20408;-50
2022/10/01 10:23:51;;;;;;;6.33;3.40;;;;;;;;;;5050631;28;20418;-47
2022/10/01 10:26:19;;;;;;;3.40;3.10;;;;;;;;;;5050966;28;20498;-50
2022/10/01 10:28:46;;;;;;;3.30;2.87;;;;;;;;;;5050809;28;21009;-48
2022/10/01 10:31:17;;;;;;;3.97;3.30;;;;;;;;;;5050701;28;20495;-48
2022/10/01 10:34:05;;;;;;;2.03;1.93;;;;;;;;;;5050442;28;20470;-49
2022/10/01 10:36:33;;;;;;;8.40;2.50;;;;;;;;;;5050747;28;20396;-50
2022/10/01 10:38:59;;;;;;;3.37;2.33;;;;;;;;;;5050965;28;20446;-49
2022/10/01 10:41:27;;;;;;;2.47;2.30;;;;;;;;;;5050802;28;20415;-49
2022/10/01 10:43:55;;;;;;;2.10;1.90;;;;;;;;;;5050440;28;20404;-51
2022/10/01 10:46:30;;;;;;;4.10;2.27;;;;;;;;;;5051031;28;20947;-50
2022/10/01 10:49:02;;;;;;;2.53;2.33;;;;;;;;;;5050905;28;20829;-51
2022/10/01 10:51:29;;;;;;;3.00;2.10;;;;;;;;;;5052983;28;20590;-49
2022/10/01 10:53:57;;;;;;;1.83;1.73;;;;;;;;;;5051801;28;20410;-48
2022/10/01 10:56:25;;;;;;;3.70;1.70;;;;;;;;;;5049517;28;20439;-51
2022/10/01 10:58:52;;;;;;;2.73;2.30;;;;;;;;;;5053992;28;20401;-49
2022/10/01 11:01:24;;;;;;;3.33;1.87;;;;;;;;;;5054228;28;20470;-51
2022/10/01 11:03:54;;;;;;;2.67;1.37;;;;;;;;;;5053566;28;20830;-51
2022/10/01 11:06:20;;;;;;;3.30;1.40;;;;;;;;;;5052449;28;20714;-50
2022/10/01 11:08:55;;;;;;;3.23;1.30;;;;;;;;;;5053581;28;20429;-51
2022/10/01 11:11:37;;;;;;;3.60;1.40;;;;;;;;;;5053813;28;20955;-49
2022/10/01 11:14:23;;;;;;;1.93;1.53;;;;;;;;;;5053620;28;20404;-49
2022/10/01 11:16:59;;;;;;;2.00;1.73;;;;;;;;;;5042450;28;20419;-51
2022/10/01 11:19:37;;;;;;;6.80;2.20;;;;;;;;;;5053739;28;20400;-50
2022/10/01 11:22:22;;;;;;;3.83;2.30;;;;;;;;;;5053775;28;20480;-50
2022/10/01 11:25:05;;;;;;;2.87;2.67;;;;;;;;;;5053353;28;20460;-51
2022/10/01 11:27:35;;;;;;;5.80;3.00;;;;;;;;;;5053834;28;20512;-49
2022/10/01 11:30:04;;;;;;;4.80;2.97;;;;;;;;;;5053496;28;20394;-51
2022/10/01 11:32:36;;;;;;;6.53;3.07;;;;;;;;;;5053521;28;20528;-51
2022/10/01 11:35:20;;;;;;;4.10;3.80;;;;;;;;;;5053025;28;20435;-50
2022/10/01 11:37:57;;;;;;;3.93;3.30;;;;;;;;;;5053353;28;20476;-49
2022/10/01 11:40:25;;;;;;;3.37;2.80;;;;;;;;;;5053479;28;20406;-49
2022/10/01 11:42:55;;;;;;;5.27;3.30;;;;;;;;;;5052924;28;20412;-50
2022/10/01 11:45:24;;;;;;;4.13;3.17;;;;;;;;;;5053875;28;20889;-49
2022/10/01 11:47:54;;;;;;;8.23;2.73;;;;;;;;;;5052905;28;20444;-47
2022/10/01 11:50:24;;;;;;;4.20;3.03;;;;;;;;;;5053135;28;20397;-50
2022/10/01 11:53:08;;;;;;;7.10;2.67;;;;;;;;;;5052831;28;20412;-50
2022/10/01 11:58:50;;;;;;;5.00;3.40;;;;;;;;;;5052410;28;20444;-50
2022/10/01 12:01:19;;;;;;;3.43;3.10;;;;;;;;;;5052431;28;20570;-50
2022/10/01 12:03:49;;;;;;;4.50;2.63;;;;;;;;;;5052530;28;20422;-50
2022/10/01 12:06:16;;;;;;;5.13;2.90;;;;;;;;;;5053156;28;20408;-49
2022/10/01 12:08:47;;;;;;;2.97;2.73;;;;;;;;;;5052420;28;20413;-48
2022/10/01 12:11:17;;;;;;;7.13;3.23;;;;;;;;;;5052708;28;20546;-49
2022/10/01 12:14:05;;;;;;;8.77;2.80;;;;;;;;;;5052355;28;20399;-49
2022/10/01 12:16:49;;;;;;;8.03;3.77;;;;;;;;;;5052813;28;20818;-49
2022/10/01 12:19:23;;;;;;;11.73;4.10;;;;;;;;;;5052615;28;20400;-50
2022/10/01 12:21:52;;;;;;;11.30;4.70;;;;;;;;;;5052658;28;20407;-49
2022/10/01 12:24:26;;;;;;;12.07;4.50;;;;;;;;;;5052371;28;20778;-49
2022/10/01 12:27:17;;;;;;;7.47;4.07;;;;;;;;;;5052739;28;20380;-50
2022/10/01 12:29:43;;;;;;;7.70;4.80;;;;;;;;;;5042031;28;20789;-49
2022/10/01 12:32:18;;;;;;;5.60;4.00;;;;;;;;;;5052435;28;20459;-49
2022/10/01 12:34:56;;;;;;;8.00;4.43;;;;;;;;;;5052195;28;20378;-49
2022/10/01 12:37:22;;;;;;;9.80;5.03;;;;;;;;;;5052593;28;20415;-49
2022/10/01 12:40:03;;;;;;;5.70;4.03;;;;;;;;;;5052065;28;20392;-50
2022/10/01 12:42:48;;;;;;;9.73;4.13;;;;;;;;;;5052260;28;20408;-47
2022/10/01 12:45:26;;;;;;;6.73;3.87;;;;;;;;;;5052771;28;20406;-47
2022/10/01 12:48:02;;;;;;;4.13;2.97;;;;;;;;;;5052455;28;20451;-49
2022/10/01 12:50:37;;;;;;;5.60;3.40;;;;;;;;;;5051876;28;20412;-48
2022/10/01 12:53:09;;;;;;;4.60;4.13;;;;;;;;;;5051634;28;20402;-49
2022/10/01 12:55:54;;;;;;;8.23;3.00;;;;;;;;;;5052372;28;20443;-50
2022/10/01 12:58:52;;;;;;;4.70;2.97;;;;;;;;;;5052099;28;20417;-51
2022/10/01 13:01:23;;;;;;;11.40;3.47;;;;;;;;;;5039884;28;20776;-50
2022/10/01 13:03:58;;;;;;;7.90;3.00;;;;;;;;;;5051519;28;20420;-50
2022/10/01 13:06:51;;;;;;;10.60;3.70;;;;;;;;;;5052164;28;20427;-49
2022/10/01 13:09:24;;;;;;;4.67;3.10;;;;;;;;;;5043205;28;20769;-49
2022/10/01 13:12:00;;;;;;;11.63;3.27;;;;;;;;;;5051653;28;20836;-49
2022/10/01 13:14:27;;;;;;;5.50;2.87;;;;;;;;;;5050736;28;20465;-48
2022/10/01 13:17:00;;;;;;;6.37;2.60;;;;;;;;;;5052542;28;20404;-46
2022/10/01 13:19:30;;;;;;;3.20;2.90;;;;;;;;;;5051553;28;20804;-46
2022/10/01 13:22:07;;;;;;;9.70;2.47;;;;;;;;;;5051685;28;20397;-47
2022/10/01 13:24:51;;;;;;;4.03;2.60;;;;;;;;;;5051734;28;20465;-46
2022/10/01 13:27:50;;;;;;;6.83;2.30;;;;;;;;;;5051751;28;20438;-46
2022/10/01 13:30:21;;;;;;;11.43;1.80;;;;;;;;;;5039178;28;20906;-46
2022/10/01 13:32:51;;;;;;;9.73;3.40;;;;;;;;;;5051500;28;20492;-46
2022/10/01 13:35:20;;;;;;;7.10;2.20;;;;;;;;;;5051753;28;20423;-46
2022/10/01 13:37:46;;;;;;;4.90;2.33;;;;;;;;;;5051614;28;20414;-46
2022/10/01 13:40:21;;;;;;;7.20;2.70;;;;;;;;;;5051304;28;20403;-46
2022/10/01 13:42:47;;;;;;;7.77;2.20;;;;;;;;;;5051543;28;20416;-47
2022/10/01 13:45:30;;;;;;;7.13;2.30;;;;;;;;;;5051955;28;20429;-46
2022/10/01 13:48:15;;;;;;;4.57;1.73;;;;;;;;;;5051497;28;20511;-46
2022/10/01 13:50:54;;;;;;;5.60;1.97;;;;;;;;;;5050972;28;20513;-46
2022/10/01 13:53:21;;;;;;;5.47;1.57;;;;;;;;;;5050944;28;20398;-46
2022/10/01 13:55:47;;;;;;;7.63;2.70;;;;;;;;;;5051224;28;20407;-45
2022/10/01 13:58:24;;;;;;;4.63;1.77;;;;;;;;;;5051655;28;20471;-46
2022/10/01 14:00:55;;;;;;;7.50;2.13;;;;;;;;;;5051116;28;20432;-45
2022/10/01 14:03:21;;;;;;;12.13;2.63;;;;;;;;;;5042322;28;20525;-45
2022/10/01 14:05:53;;;;;;;12.30;3.00;;;;;;;;;;5031587;28;20399;-46
2022/10/01 14:08:39;;;;;;;5.60;2.30;;;;;;;;;;5031532;28;20414;-46
2022/10/01 14:16:48;;;;;;;11.43;2.60;;;;;;;;;;5031396;28;20498;-45
2022/10/01 14:19:20;;;;;;;9.03;2.00;;;;;;;;;;5031210;28;20433;-45
2022/10/01 14:22:04;;;;;;;14.40;2.50;;;;;;;;;;5030208;28;20406;-45
2022/10/01 14:24:48;;;;;;;8.00;1.90;;;;;;;;;;5031479;28;20867;-45
2022/10/01 14:27:39;;;;;;;5.70;2.27;;;;;;;;;;5034928;28;20897;-45
2022/10/01 14:30:16;;;;;;;7.50;1.93;;;;;;;;;;5034699;28;20789;-45
2022/10/01 14:32:42;;;;;;;3.53;2.03;;;;;;;;;;5034843;28;20465;-45
2022/10/01 14:35:08;;;;;;;3.90;1.40;;;;;;;;;;5034639;28;20518;-44
2022/10/01 14:37:38;;;;;;;2.53;1.30;;;;;;;;;;5034930;28;20554;-44
2022/10/01 14:40:21;;;;;;;2.27;1.60;;;;;;;;;;5034623;28;20410;-44
2022/10/01 14:43:00;;;;;;;5.33;2.10;;;;;;;;;;5034629;28;20414;-44
2022/10/01 14:45:30;;;;;;;2.50;2.03;;;;;;;;;;5034807;28;20416;-44
2022/10/01 14:48:00;;;;;;;3.83;1.40;;;;;;;;;;5034641;28;20404;-44
2022/10/01 14:50:26;;;;;;;7.87;1.67;;;;;;;;;;5034771;28;20416;-44
2022/10/01 14:52:53;;;;;;;4.30;1.60;;;;;;;;;;5034032;28;20398;-44
2022/10/01 14:55:21;;;;;;;5.80;1.60;;;;;;;;;;5040707;28;20369;-44
2022/10/01 14:57:52;;;;;;;6.70;2.03;;;;;;;;;;5054310;28;20450;-44
2022/10/01 15:00:20;;;;;;;5.10;1.70;;;;;;;;;;5054516;28;20374;-44
2022/10/01 15:02:50;;;;;;;5.00;2.00;;;;;;;;;;5053918;28;20497;-44
2022/10/01 15:05:20;;;;;;;15.83;2.03;;;;;;;;;;5054499;28;20405;-44
2022/10/01 15:07:46;;;;;;;6.23;1.90;;;;;;;;;;5054141;28;20409;-44
2022/10/01 15:10:16;;;;;;;10.63;4.10;;;;;;;;;;5053967;28;20387;-44
2022/10/01 15:12:42;;;;;;;7.47;2.20;;;;;;;;;;5053805;28;20841;-44
2022/10/01 15:15:16;;;;;;;7.90;2.00;;;;;;;;;;5053656;28;20871;-44